Time;durP1;ratioP1;P1;durP2;ratioP2;P2;SDS_P1;SDS_P2;PMS_P1;PMS_P2;Temp;Humidity;BMP_temperature;BMP_pressure;BME280_temperature;BME280_humidity;BME280_pressure;Samples;Min_cycle;Max_cycle;Signal;HPM_P1;HPM_P2
2021/09/19 00:01:20;;;;;;;5.00;4.45;;;18.60;74.60;;;;;;5094674;28;20101;-69
2021/09/19 00:03:46;;;;;;;5.57;4.95;;;18.60;74.70;;;;;;5094764;28;20047;-69
2021/09/19 00:06:12;;;;;;;5.72;4.78;;;18.60;74.70;;;;;;5077880;28;20052;-69
2021/09/19 00:08:38;;;;;;;4.78;4.28;;;18.60;74.70;;;;;;5095844;28;20089;-68
2021/09/19 00:11:04;;;;;;;6.00;4.60;;;18.60;74.70;;;;;;5095145;28;20040;-69
2021/09/19 00:13:30;;;;;;;5.75;4.55;;;18.60;74.70;;;;;;5094982;28;20075;-69
2021/09/19 00:15:55;;;;;;;5.55;4.57;;;18.60;74.80;;;;;;5099041;28;20351;-68
2021/09/19 00:18:21;;;;;;;4.75;4.30;;;18.60;74.80;;;;;;5099156;28;20104;-69
2021/09/19 00:20:47;;;;;;;4.50;4.10;;;18.60;74.90;;;;;;5099218;28;20059;-68
2021/09/19 00:23:14;;;;;;;5.50;4.00;;;18.60;74.90;;;;;;5081384;28;20047;-69
2021/09/19 00:25:39;;;;;;;5.15;4.65;;;18.60;74.90;;;;;;5098734;28;20122;-69
2021/09/19 00:28:06;;;;;;;4.90;4.40;;;18.60;74.90;;;;;;5099479;28;20127;-69
2021/09/19 00:30:33;;;;;;;5.75;4.50;;;18.60;74.90;;;;;;5099177;28;20431;-69
2021/09/19 00:32:59;;;;;;;4.82;4.35;;;18.60;75.00;;;;;;5098717;28;20044;-68
2021/09/19 00:35:26;;;;;;;5.40;4.78;;;18.60;75.00;;;;;;5099415;28;20032;-69
2021/09/19 00:37:53;;;;;;;4.72;4.32;;;18.60;75.00;;;;;;5098891;28;20036;-69
2021/09/19 00:40:19;;;;;;;4.93;4.38;;;18.60;75.00;;;;;;5098752;28;20309;-68
2021/09/19 00:42:45;;;;;;;6.30;4.85;;;18.60;75.00;;;;;;5098856;28;20454;-69
2021/09/19 00:45:13;;;;;;;5.75;4.85;;;18.60;75.00;;;;;;5098761;28;20086;-68
2021/09/19 00:47:40;;;;;;;5.32;4.25;;;18.60;75.00;;;;;;5098356;28;20490;-69
2021/09/19 00:50:08;;;;;;;5.32;4.75;;;18.60;75.00;;;;;;5098514;28;20358;-69
2021/09/19 00:52:37;;;;;;;4.80;4.25;;;18.60;75.00;;;;;;5098216;28;20044;-69
2021/09/19 00:55:03;;;;;;;4.68;4.28;;;18.60;75.00;;;;;;5098190;28;20113;-68
2021/09/19 00:57:29;;;;;;;5.03;4.53;;;18.60;75.00;;;;;;5098583;28;20044;-69
2021/09/19 00:59:55;;;;;;;4.60;4.15;;;18.60;75.00;;;;;;5099080;28;20117;-69
2021/09/19 01:02:21;;;;;;;4.30;3.70;;;18.60;75.00;;;;;;5097874;28;20419;-69
2021/09/19 01:04:48;;;;;;;5.40;3.83;;;18.60;75.00;;;;;;5098386;28;20128;-68
2021/09/19 01:07:15;;;;;;;4.38;3.97;;;18.60;75.10;;;;;;5098928;28;20051;-68
2021/09/19 01:09:41;;;;;;;4.22;3.83;;;18.60;75.10;;;;;;5098426;28;20378;-70
2021/09/19 01:12:12;;;;;;;4.45;3.60;;;18.60;75.10;;;;;;5098007;28;20118;-70
2021/09/19 01:14:41;;;;;;;4.38;3.40;;;18.60;75.70;;;;;;5098044;28;20079;-69
2021/09/19 01:17:08;;;;;;;5.53;3.70;;;18.60;75.10;;;;;;5098333;28;20075;-69
2021/09/19 01:19:36;;;;;;;3.88;3.47;;;18.60;75.10;;;;;;5098468;28;20051;-69
2021/09/19 01:22:03;;;;;;;4.35;3.50;;;18.60;75.20;;;;;;5097959;28;20040;-69
2021/09/19 01:24:29;;;;;;;3.40;3.08;;;18.60;75.20;;;;;;5097523;28;20050;-68
2021/09/19 01:26:55;;;;;;;4.20;2.90;;;18.60;75.20;;;;;;5096895;28;20040;-68
2021/09/19 01:29:22;;;;;;;3.05;2.75;;;18.60;75.10;;;;;;5098263;28;20047;-68
2021/09/19 01:31:48;;;;;;;4.15;3.25;;;18.60;75.20;;;;;;5097041;28;20036;-69
2021/09/19 01:34:14;;;;;;;3.22;2.85;;;18.60;75.10;;;;;;5097255;28;20044;-69
2021/09/19 01:36:40;;;;;;;3.28;2.50;;;18.60;75.10;;;;;;5097619;28;20044;-69
2021/09/19 01:39:07;;;;;;;4.05;3.00;;;18.60;75.10;;;;;;5097493;28;20050;-69
2021/09/19 01:41:34;;;;;;;2.70;2.50;;;18.60;75.10;;;;;;5097958;28;20044;-69
2021/09/19 01:44:01;;;;;;;2.67;2.47;;;18.60;75.20;;;;;;5079854;28;20040;-69
2021/09/19 01:46:27;;;;;;;3.75;2.75;;;18.50;75.10;;;;;;5097464;28;20127;-69
2021/09/19 01:48:52;;;;;;;4.47;2.78;;;18.50;75.10;;;;;;5097026;28;20123;-70
2021/09/19 01:51:18;;;;;;;3.13;2.28;;;18.50;75.10;;;;;;5097546;28;20123;-69
2021/09/19 01:53:44;;;;;;;2.55;2.35;;;18.50;75.10;;;;;;5097378;28;20040;-69
2021/09/19 01:56:10;;;;;;;4.00;2.55;;;18.60;75.10;;;;;;5097222;28;20462;-69
2021/09/19 01:58:50;;;;;;;2.45;1.95;;;18.60;75.10;;;;;;5097173;28;20040;-69
2021/09/19 02:01:17;;;;;;;3.45;2.67;;;18.50;75.00;;;;;;5096526;28;20043;-69
2021/09/19 02:03:43;;;;;;;2.20;2.03;;;18.50;75.00;;;;;;5096690;28;20463;-69
2021/09/19 02:06:10;;;;;;;2.38;2.17;;;18.50;75.00;;;;;;5096839;28;20051;-70
2021/09/19 02:08:36;;;;;;;2.65;1.80;;;18.50;75.00;;;;;;5096950;28;20047;-69
2021/09/19 02:11:08;;;;;;;1.98;1.50;;;18.50;75.00;;;;;;5096958;28;20329;-68
2021/09/19 02:13:34;;;;;;;1.98;1.55;;;18.50;75.60;;;;;;5097084;28;20122;-69
2021/09/19 02:16:01;;;;;;;4.20;2.10;;;18.50;75.00;;;;;;5097281;28;20043;-69
2021/09/19 02:18:27;;;;;;;1.90;1.50;;;18.50;74.90;;;;;;5096875;28;20541;-69
2021/09/19 02:20:53;;;;;;;3.05;1.85;;;18.50;74.90;;;;;;5096639;28;20048;-70
2021/09/19 02:23:19;;;;;;;1.60;1.45;;;18.50;74.90;;;;;;5097245;28;20040;-69
2021/09/19 02:25:45;;;;;;;3.63;1.88;;;18.50;74.90;;;;;;5096610;28;20532;-69
2021/09/19 02:28:12;;;;;;;2.03;1.50;;;18.50;75.00;;;;;;5096611;28;20054;-68
2021/09/19 02:30:37;;;;;;;2.28;1.60;;;18.50;75.00;;;;;;5096527;28;20354;-69
2021/09/19 02:33:03;;;;;;;1.55;1.42;;;18.50;75.00;;;;;;5096751;28;20127;-68
2021/09/19 02:35:29;;;;;;;3.15;1.70;;;18.50;75.00;;;;;;5097185;28;20355;-69
2021/09/19 02:37:55;;;;;;;3.53;1.60;;;18.40;75.10;;;;;;5095245;28;20051;-69
2021/09/19 02:40:21;;;;;;;3.53;1.80;;;18.50;75.10;;;;;;5096459;28;20035;-68
2021/09/19 02:42:51;;;;;;;2.72;1.58;;;18.50;75.10;;;;;;5096465;28;20036;-69
2021/09/19 02:45:17;;;;;;;3.25;2.00;;;18.50;75.10;;;;;;5096307;28;20044;-69
2021/09/19 02:47:44;;;;;;;2.05;1.30;;;18.50;75.10;;;;;;5096103;28;20062;-69
2021/09/19 02:50:13;;;;;;;2.17;1.85;;;18.50;75.20;;;;;;5096159;28;20051;-69
2021/09/19 02:52:39;;;;;;;4.10;2.05;;;18.50;75.20;;;;;;5096086;28;20096;-68
2021/09/19 02:55:06;;;;;;;2.40;1.83;;;18.50;75.20;;;;;;5096611;28;20407;-69
2021/09/19 02:57:31;;;;;;;1.90;1.67;;;18.40;75.10;;;;;;5096356;28;20040;-68
2021/09/19 02:59:57;;;;;;;2.83;1.70;;;18.40;75.20;;;;;;5078158;28;20344;-69
2021/09/19 03:02:23;;;;;;;2.50;1.70;;;18.40;75.20;;;;;;5075504;28;20394;-69
2021/09/19 03:04:49;;;;;;;2.10;1.60;;;18.40;75.20;;;;;;5075632;28;20040;-69
2021/09/19 03:07:15;;;;;;;2.40;1.60;;;18.40;75.20;;;;;;5075752;28;20047;-68
2021/09/19 03:09:40;;;;;;;2.20;1.60;;;18.40;75.20;;;;;;5075614;28;20040;-68
2021/09/19 03:12:06;;;;;;;1.98;1.77;;;18.40;75.20;;;;;;5075549;28;20442;-69
2021/09/19 03:14:32;;;;;;;2.00;1.58;;;18.40;75.20;;;;;;5075331;28;20418;-69
2021/09/19 03:16:58;;;;;;;2.53;1.95;;;18.50;75.20;;;;;;5075330;28;20155;-68
2021/09/19 03:19:23;;;;;;;3.20;1.95;;;18.40;75.20;;;;;;5075349;28;20048;-69
2021/09/19 03:21:49;;;;;;;2.58;2.13;;;18.40;75.20;;;;;;5075572;28;20355;-68
2021/09/19 03:24:15;;;;;;;3.30;2.10;;;18.40;75.30;;;;;;5057985;28;20427;-68
2021/09/19 03:26:41;;;;;;;2.67;1.80;;;18.40;75.30;;;;;;5075553;28;20052;-69
2021/09/19 03:29:06;;;;;;;2.50;1.83;;;18.40;75.30;;;;;;5069985;28;20063;-70
2021/09/19 03:31:32;;;;;;;2.95;2.25;;;18.40;75.20;;;;;;5096122;28;20101;-68
2021/09/19 03:33:58;;;;;;;2.13;1.85;;;18.50;75.30;;;;;;5095568;28;20412;-69
2021/09/19 03:36:24;;;;;;;2.83;2.22;;;18.40;75.30;;;;;;5095989;28;20431;-69
2021/09/19 03:38:50;;;;;;;3.90;2.60;;;18.50;75.30;;;;;;5095377;28;20398;-69
2021/09/19 03:41:15;;;;;;;2.33;2.13;;;18.40;75.30;;;;;;5077772;28;20040;-69
2021/09/19 03:43:41;;;;;;;3.78;2.25;;;18.40;75.30;;;;;;5095494;28;20151;-69
2021/09/19 03:46:07;;;;;;;2.70;2.40;;;18.40;75.30;;;;;;5095180;28;20051;-69
2021/09/19 03:48:33;;;;;;;3.15;2.28;;;18.40;75.30;;;;;;5095242;28;20052;-70
2021/09/19 03:50:59;;;;;;;3.55;2.50;;;18.50;75.40;;;;;;5095550;28;20055;-69
2021/09/19 03:53:25;;;;;;;4.63;2.50;;;18.50;75.30;;;;;;5095097;28;20040;-69
2021/09/19 03:55:51;;;;;;;3.53;2.30;;;18.40;75.30;;;;;;5077830;28;20108;-68
2021/09/19 03:58:17;;;;;;;3.42;2.10;;;18.40;75.30;;;;;;5094764;28;20044;-69
2021/09/19 04:00:42;;;;;;;3.30;2.30;;;18.40;75.30;;;;;;5095348;28;20044;-69
2021/09/19 04:03:08;;;;;;;3.97;2.80;;;18.40;75.30;;;;;;5059931;28;20048;-69
2021/09/19 04:05:36;;;;;;;6.55;3.20;;;18.40;75.40;;;;;;5095072;28;20044;-70
2021/09/19 04:08:05;;;;;;;3.63;2.72;;;18.40;75.40;;;;;;5095944;28;20040;-69
2021/09/19 04:10:31;;;;;;;4.70;2.75;;;18.40;75.40;;;;;;5095701;28;20568;-69
2021/09/19 04:12:57;;;;;;;4.85;3.05;;;18.40;75.40;;;;;;5095360;28;20123;-69
2021/09/19 04:15:22;;;;;;;3.22;2.70;;;18.40;75.40;;;;;;5095279;28;20051;-69
2021/09/19 04:17:48;;;;;;;3.85;3.13;;;18.40;75.40;;;;;;5095539;28;20051;-68
2021/09/19 04:20:14;;;;;;;3.78;2.83;;;18.40;75.50;;;;;;5095271;28;20044;-69
2021/09/19 04:22:40;;;;;;;3.75;2.97;;;18.40;75.60;;;;;;5094823;28;20075;-68
2021/09/19 04:25:08;;;;;;;3.42;3.00;;;18.40;75.50;;;;;;5095857;28;20048;-69
2021/09/19 04:27:35;;;;;;;3.92;2.85;;;18.40;75.50;;;;;;5076676;28;20062;-69
2021/09/19 04:30:00;;;;;;;4.13;3.30;;;18.40;75.50;;;;;;5094606;28;20051;-69
2021/09/19 04:32:27;;;;;;;4.00;2.90;;;18.40;75.50;;;;;;5077279;28;20044;-70
2021/09/19 04:34:52;;;;;;;2.95;2.75;;;18.40;75.60;;;;;;5095012;28;20062;-68
2021/09/19 04:37:18;;;;;;;4.05;3.20;;;18.40;75.60;;;;;;5094993;28;20040;-68
2021/09/19 04:39:45;;;;;;;4.53;3.50;;;18.40;75.60;;;;;;5094940;28;20042;-69
2021/09/19 04:42:13;;;;;;;5.65;3.58;;;18.40;75.60;;;;;;5094580;28;20036;-68
2021/09/19 04:44:39;;;;;;;4.10;3.70;;;18.40;75.60;;;;;;5094641;28;20067;-69
2021/09/19 04:47:05;;;;;;;5.45;4.15;;;18.40;75.60;;;;;;5094759;28;20059;-68
2021/09/19 04:49:31;;;;;;;7.53;4.15;;;18.40;75.60;;;;;;5077738;28;20040;-70
2021/09/19 04:51:57;;;;;;;7.43;4.00;;;18.40;75.60;;;;;;5094950;28;20332;-69
2021/09/19 04:54:22;;;;;;;4.60;3.35;;;18.40;75.60;;;;;;5094759;28;20059;-69
2021/09/19 04:56:48;;;;;;;4.28;3.83;;;18.40;75.60;;;;;;5094054;28;20047;-69
2021/09/19 04:59:14;;;;;;;5.50;4.25;;;18.40;75.60;;;;;;5094491;28;20043;-69
2021/09/19 05:01:40;;;;;;;3.65;3.33;;;18.40;75.60;;;;;;5096489;28;20443;-69
2021/09/19 05:04:05;;;;;;;5.55;3.72;;;18.40;75.60;;;;;;5098668;28;20043;-69
2021/09/19 05:06:31;;;;;;;5.20;3.60;;;18.40;75.60;;;;;;5080487;28;20447;-69
2021/09/19 05:08:57;;;;;;;5.25;3.95;;;18.30;75.50;;;;;;5098389;28;20036;-68
2021/09/19 05:11:22;;;;;;;5.55;3.38;;;18.40;75.50;;;;;;5098310;28;20079;-68
2021/09/19 05:13:48;;;;;;;6.35;3.65;;;18.40;75.30;;;;;;5098088;28;20040;-69
2021/09/19 05:16:14;;;;;;;5.30;3.45;;;18.40;75.30;;;;;;5097947;28;20105;-69
2021/09/19 05:18:39;;;;;;;4.75;3.03;;;18.40;75.20;;;;;;5098221;28;20093;-69
2021/09/19 05:21:05;;;;;;;4.72;3.00;;;18.40;75.20;;;;;;5097838;28;20335;-68
2021/09/19 05:23:31;;;;;;;5.57;3.50;;;18.40;75.10;;;;;;5098222;28;20058;-69
2021/09/19 05:25:57;;;;;;;4.57;3.50;;;18.30;75.00;;;;;;5080015;28;20443;-69
2021/09/19 05:28:23;;;;;;;6.03;3.33;;;18.30;74.90;;;;;;5098020;28;20047;-68
2021/09/19 05:30:48;;;;;;;4.90;3.20;;;18.30;74.80;;;;;;5097201;28;20350;-69
2021/09/19 05:33:14;;;;;;;4.38;3.00;;;18.30;75.30;;;;;;5098060;28;20415;-69
2021/09/19 05:35:40;;;;;;;3.67;2.95;;;18.30;74.50;;;;;;5097838;28;20048;-69
2021/09/19 05:38:06;;;;;;;4.43;2.88;;;18.30;74.50;;;;;;5097643;28;20435;-69
2021/09/19 05:40:34;;;;;;;4.88;3.10;;;18.30;74.40;;;;;;5097333;28;20043;-68
2021/09/19 05:43:01;;;;;;;5.10;3.17;;;18.30;74.30;;;;;;5097366;28;20040;-68
2021/09/19 05:45:28;;;;;;;5.15;3.00;;;18.30;74.20;;;;;;5097092;28;20177;-68
2021/09/19 05:47:54;;;;;;;5.75;3.22;;;18.30;74.10;;;;;;5097293;28;20127;-68
2021/09/19 05:50:20;;;;;;;6.55;3.22;;;18.30;74.10;;;;;;5079492;28;20051;-69
2021/09/19 05:52:45;;;;;;;7.60;3.60;;;18.30;74.00;;;;;;5097630;28;20122;-69
2021/09/19 05:55:11;;;;;;;7.55;3.80;;;18.30;73.20;;;;;;5097284;28;20059;-68
2021/09/19 05:57:37;;;;;;;11.90;7.10;;;18.20;72.80;;;;;;5096636;28;20369;-72
2021/09/19 06:00:05;;;;;;;7.90;3.92;;;18.10;72.90;;;;;;5062125;28;20183;-75
2021/09/19 06:02:34;;;;;;;6.03;4.28;;;18.00;73.20;;;;;;5096685;28;20123;-74
2021/09/19 06:04:59;;;;;;;9.20;4.43;;;18.00;73.20;;;;;;5096894;28;20050;-73
2021/09/19 06:07:25;;;;;;;6.78;4.15;;;18.00;73.40;;;;;;5096907;28;20123;-75
2021/09/19 06:09:51;;;;;;;4.88;4.18;;;18.00;73.40;;;;;;5096792;28;20373;-74
2021/09/19 06:12:17;;;;;;;7.85;4.60;;;17.90;74.10;;;;;;5079011;28;20055;-72
2021/09/19 06:14:43;;;;;;;5.32;4.13;;;17.80;73.40;;;;;;5096891;28;20363;-73
2021/09/19 06:17:09;;;;;;;8.15;3.58;;;17.80;73.30;;;;;;5096855;28;20039;-72
2021/09/19 06:19:36;;;;;;;8.02;3.88;;;17.80;73.90;;;;;;5078531;28;20036;-76
2021/09/19 06:22:02;;;;;;;7.30;4.10;;;17.80;74.00;;;;;;5096763;28;20112;-74
2021/09/19 06:24:30;;;;;;;9.02;4.45;;;17.80;73.90;;;;;;5079076;28;20496;-72
2021/09/19 06:27:00;;;;;;;7.90;4.57;;;17.80;74.00;;;;;;5078643;28;20136;-75
2021/09/19 06:29:26;;;;;;;6.88;4.00;;;17.80;74.00;;;;;;5079030;28;20047;-73
2021/09/19 06:31:52;;;;;;;7.00;4.25;;;17.90;74.10;;;;;;5078392;28;20044;-73
2021/09/19 06:34:18;;;;;;;7.53;3.85;;;17.90;74.10;;;;;;5096140;28;20043;-72
2021/09/19 06:36:43;;;;;;;6.65;3.85;;;17.90;74.10;;;;;;5078848;28;20044;-71
2021/09/19 06:39:09;;;;;;;5.97;3.30;;;18.00;74.10;;;;;;5096540;28;20450;-69
2021/09/19 06:41:35;;;;;;;7.88;3.80;;;18.00;74.10;;;;;;5078682;28;20451;-72
2021/09/19 06:44:02;;;;;;;5.35;3.25;;;18.00;74.10;;;;;;5096288;28;20074;-72
2021/09/19 06:46:31;;;;;;;5.78;3.30;;;18.00;74.10;;;;;;5096123;28;20054;-69
2021/09/19 06:48:58;;;;;;;5.72;3.33;;;18.10;74.10;;;;;;5096280;28;20042;-70
2021/09/19 06:51:24;;;;;;;5.45;3.28;;;18.10;74.30;;;;;;5096360;28;20058;-70
2021/09/19 06:53:49;;;;;;;9.05;3.65;;;18.10;74.50;;;;;;5096307;28;20044;-70
2021/09/19 06:56:15;;;;;;;7.38;3.40;;;18.20;74.80;;;;;;5095997;28;20044;-70
2021/09/19 06:58:41;;;;;;;7.10;3.42;;;18.20;74.90;;;;;;5074734;28;20052;-69
2021/09/19 07:01:08;;;;;;;5.75;2.80;;;18.30;74.90;;;;;;5076182;28;20416;-70
2021/09/19 07:03:34;;;;;;;8.45;3.15;;;18.40;75.00;;;;;;5075500;28;20052;-69
2021/09/19 07:06:00;;;;;;;6.38;2.92;;;18.50;74.90;;;;;;5057739;28;20059;-69
2021/09/19 07:08:27;;;;;;;5.43;3.25;;;18.60;73.00;;;;;;5075803;28;20036;-71
2021/09/19 07:10:53;;;;;;;7.80;3.17;;;18.60;73.90;;;;;;5057870;28;20197;-72
2021/09/19 07:13:21;;;;;;;5.00;2.78;;;18.70;74.40;;;;;;5057966;28;20054;-71
2021/09/19 07:15:52;;;;;;;8.15;3.42;;;18.70;74.60;;;;;;5058025;28;20044;-71
2021/09/19 07:18:19;;;;;;;6.32;2.45;;;18.80;74.70;;;;;;5075130;28;20054;-71
2021/09/19 07:20:45;;;;;;;8.27;2.70;;;18.80;74.80;;;;;;5057250;28;20390;-71
2021/09/19 07:23:11;;;;;;;4.70;2.90;;;18.80;74.90;;;;;;5074911;28;20048;-73
2021/09/19 07:25:37;;;;;;;8.25;3.70;;;18.80;74.90;;;;;;5057357;28;20101;-73
2021/09/19 07:28:04;;;;;;;8.52;3.00;;;18.90;75.00;;;;;;5082337;28;20035;-73
2021/09/19 07:30:30;;;;;;;5.68;2.80;;;18.80;75.00;;;;;;5095636;28;20120;-72
2021/09/19 07:32:56;;;;;;;7.88;2.80;;;18.80;75.00;;;;;;5095934;28;20050;-73
2021/09/19 07:35:22;;;;;;;4.90;2.72;;;18.80;75.10;;;;;;5077923;28;20431;-71
2021/09/19 07:37:49;;;;;;;9.10;3.10;;;18.90;75.80;;;;;;5078065;28;20040;-71
2021/09/19 07:40:15;;;;;;;10.32;2.80;;;18.80;75.20;;;;;;5077816;28;20031;-72
2021/09/19 07:42:41;;;;;;;5.88;2.80;;;18.80;75.40;;;;;;5095166;28;20031;-75
2021/09/19 07:45:08;;;;;;;7.82;3.72;;;18.90;75.20;;;;;;5077174;28;20454;-72
2021/09/19 07:47:34;;;;;;;11.18;3.67;;;18.90;74.80;;;;;;5095692;28;20062;-73
2021/09/19 07:50:00;;;;;;;10.50;3.80;;;18.90;74.50;;;;;;5096204;28;20044;-69
2021/09/19 07:52:27;;;;;;;6.93;3.80;;;18.90;74.20;;;;;;5077041;28;20052;-71
2021/09/19 07:54:54;;;;;;;6.40;3.25;;;18.80;74.20;;;;;;5094269;28;20465;-71
2021/09/19 07:57:24;;;;;;;9.50;4.15;;;18.80;74.30;;;;;;5077483;28;20111;-70
2021/09/19 07:59:51;;;;;;;9.23;3.55;;;18.80;74.60;;;;;;5087410;28;20036;-76
2021/09/19 08:02:18;;;;;;;12.65;4.57;;;18.80;74.80;;;;;;5094443;28;20024;-80
2021/09/19 08:04:44;;;;;;;9.18;4.25;;;18.80;75.20;;;;;;5077465;28;20119;-76
2021/09/19 08:07:09;;;;;;;8.40;3.80;;;18.80;76.30;;;;;;5095390;28;20408;-75
2021/09/19 08:09:35;;;;;;;13.05;4.13;;;18.90;76.80;;;;;;5077254;28;20048;-76
2021/09/19 08:12:01;;;;;;;9.48;4.07;;;18.90;76.90;;;;;;5077114;28;20059;-74
2021/09/19 08:14:27;;;;;;;9.32;3.78;;;18.90;76.80;;;;;;5077086;28;20054;-75
2021/09/19 08:16:53;;;;;;;8.02;3.92;;;18.90;76.50;;;;;;5095108;28;20411;-77
2021/09/19 08:19:21;;;;;;;12.45;4.38;;;18.90;76.20;;;;;;5094904;28;20079;-76
2021/09/19 08:21:47;;;;;;;9.43;3.53;;;18.90;76.20;;;;;;5076860;28;20043;-76
2021/09/19 08:24:14;;;;;;;9.52;3.55;;;18.90;76.20;;;;;;5094845;28;20363;-78
2021/09/19 08:26:49;;;;;;;8.88;3.35;;;18.90;76.10;;;;;;5094316;28;20028;-79
2021/09/19 08:29:28;;;;;;;10.35;3.90;;;18.90;76.70;;;;;;5058177;28;20044;-79
2021/09/19 08:31:54;;;;;;;8.20;3.63;;;18.90;76.90;;;;;;5060353;28;20128;-79
2021/09/19 08:34:20;;;;;;;7.40;3.50;;;18.90;76.80;;;;;;5060356;28;20060;-80
2021/09/19 08:36:46;;;;;;;9.13;3.80;;;18.90;76.70;;;;;;5063903;28;20047;-80
2021/09/19 08:39:17;;;;;;;10.75;3.80;;;18.90;76.40;;;;;;5063824;28;20043;-80
2021/09/19 08:41:49;;;;;;;8.20;4.00;;;18.90;76.10;;;;;;5063813;28;20048;-79
2021/09/19 08:44:17;;;;;;;8.07;3.95;;;19.00;75.90;;;;;;5064082;28;20339;-78
2021/09/19 08:46:45;;;;;;;10.38;4.10;;;19.00;75.60;;;;;;5080795;28;20036;-79
2021/09/19 08:49:12;;;;;;;10.10;3.75;;;19.00;75.40;;;;;;5064298;28;20399;-80
2021/09/19 08:51:38;;;;;;;5.60;3.40;;;19.00;75.40;;;;;;5063982;28;20085;-79
2021/09/19 08:54:04;;;;;;;6.60;3.70;;;19.00;75.20;;;;;;5063377;28;20079;-79
2021/09/19 08:56:30;;;;;;;6.40;3.70;;;19.00;75.10;;;;;;5063463;28;20200;-79
2021/09/19 08:58:58;;;;;;;9.07;3.78;;;19.00;74.90;;;;;;5063735;28;20080;-79
2021/09/19 09:01:24;;;;;;;6.70;4.25;;;19.00;74.80;;;;;;5063518;28;20123;-78
2021/09/19 09:03:52;;;;;;;6.43;3.85;;;19.00;74.60;;;;;;5064339;28;20124;-79
2021/09/19 09:06:20;;;;;;;6.88;4.25;;;19.00;74.50;;;;;;5063706;28;20036;-79
2021/09/19 09:08:46;;;;;;;6.55;3.85;;;19.00;74.10;;;;;;5063671;28;20422;-79
2021/09/19 09:11:12;;;;;;;9.35;4.18;;;19.00;73.90;;;;;;5063713;28;20028;-79
2021/09/19 09:13:40;;;;;;;10.02;4.28;;;19.00;73.90;;;;;;5063382;28;20040;-79
2021/09/19 09:16:10;;;;;;;5.13;3.92;;;19.10;74.00;;;;;;5063481;28;20028;-79
2021/09/19 09:18:45;;;;;;;5.75;3.83;;;19.00;73.80;;;;;;5064058;28;20341;-79
2021/09/19 09:21:21;;;;;;;8.45;4.32;;;19.10;73.80;;;;;;5063860;28;20161;-79
2021/09/19 09:23:51;;;;;;;5.00;3.67;;;19.10;73.60;;;;;;5063506;28;20043;-82
2021/09/19 09:26:37;;;;;;;8.65;3.75;;;19.10;73.80;;;;;;5063823;28;20032;-76
2021/09/19 09:29:13;;;;;;;6.45;3.80;;;19.00;73.40;;;;;;5097822;28;20118;-74
2021/09/19 09:31:44;;;;;;;5.85;3.55;;;19.00;73.20;;;;;;5097850;28;20036;-71
2021/09/19 09:34:11;;;;;;;7.70;3.50;;;19.00;72.90;;;;;;5097697;28;20036;-73
2021/09/19 09:36:42;;;;;;;6.30;3.88;;;19.00;73.00;;;;;;5097226;28;20032;-71
2021/09/19 09:39:37;;;;;;;12.35;3.72;;;19.00;73.60;;;;;;5097959;28;20127;-70
2021/09/19 09:42:17;;;;;;;12.40;3.95;;;19.00;73.10;;;;;;5079297;28;20059;-69
2021/09/19 09:44:52;;;;;;;12.18;3.83;;;19.00;73.40;;;;;;5062941;28;20136;-72
2021/09/19 09:47:19;;;;;;;11.23;4.13;;;19.00;73.50;;;;;;5096343;28;20362;-70
2021/09/19 09:50:03;;;;;;;8.32;3.63;;;19.00;73.60;;;;;;5074084;28;20041;-71
2021/09/19 09:52:33;;;;;;;11.82;4.25;;;19.10;73.60;;;;;;5077075;28;20044;-70
2021/09/19 09:55:10;;;;;;;7.45;3.60;;;19.00;73.70;;;;;;5077361;28;20101;-70
2021/09/19 09:57:35;;;;;;;8.85;3.50;;;19.10;73.90;;;;;;5076595;28;20430;-72
2021/09/19 10:00:07;;;;;;;7.70;3.63;;;19.10;73.90;;;;;;5077287;28;20052;-70
2021/09/19 10:02:35;;;;;;;7.93;3.40;;;19.10;74.00;;;;;;5059593;28;20501;-70
2021/09/19 10:05:01;;;;;;;10.10;3.72;;;19.10;74.10;;;;;;5077009;28;20041;-69
2021/09/19 10:07:27;;;;;;;7.38;3.50;;;19.10;74.30;;;;;;5059300;28;20118;-71
2021/09/19 10:09:53;;;;;;;6.50;3.92;;;19.10;74.30;;;;;;5058991;28;20041;-72
2021/09/19 10:12:21;;;;;;;7.88;3.70;;;19.10;74.40;;;;;;5076583;28;20049;-74
2021/09/19 10:14:52;;;;;;;8.27;3.58;;;19.10;74.50;;;;;;5059327;28;20048;-74
2021/09/19 10:17:22;;;;;;;9.60;4.05;;;19.10;74.20;;;;;;5076759;28;20110;-73
2021/09/19 10:19:50;;;;;;;10.32;3.60;;;19.10;74.10;;;;;;5058800;28;20505;-75
2021/09/19 10:22:41;;;;;;;6.68;3.50;;;19.10;73.80;;;;;;5058911;28;20052;-74
2021/09/19 10:25:09;;;;;;;4.95;3.60;;;19.10;72.70;;;;;;5076374;28;20139;-75
2021/09/19 10:27:35;;;;;;;6.50;4.10;;;19.10;72.80;;;;;;5076333;28;20113;-73
2021/09/19 10:30:11;;;;;;;10.77;5.10;;;19.10;72.60;;;;;;5076926;28;20055;-72
2021/09/19 10:32:42;;;;;;;12.63;6.88;;;19.20;73.00;;;;;;5096073;28;20500;-74
2021/09/19 10:35:12;;;;;;;9.68;6.45;;;19.10;72.80;;;;;;5078620;28;20120;-74
2021/09/19 10:38:00;;;;;;;13.25;8.50;;;19.20;72.90;;;;;;5075055;28;20505;-74
2021/09/19 10:40:36;;;;;;;16.15;9.13;;;19.20;74.00;;;;;;5058710;28;20048;-73
2021/09/19 10:43:08;;;;;;;12.98;7.85;;;19.20;73.60;;;;;;5092921;28;20111;-79
2021/09/19 10:45:43;;;;;;;8.20;6.07;;;19.20;73.10;;;;;;5078001;28;20113;-73
2021/09/19 10:48:15;;;;;;;10.45;6.80;;;19.20;72.70;;;;;;5096112;28;20083;-72
2021/09/19 10:50:43;;;;;;;7.75;4.70;;;19.20;72.60;;;;;;5078372;28;20454;-71
2021/09/19 10:53:21;;;;;;;7.93;5.28;;;19.20;72.40;;;;;;5096515;28;20044;-74
2021/09/19 10:55:50;;;;;;;6.05;4.20;;;19.20;71.70;;;;;;5078296;28;20508;-75
2021/09/19 10:58:28;;;;;;;8.65;4.28;;;19.20;71.50;;;;;;5095218;28;20131;-78
2021/09/19 11:01:07;;;;;;;5.85;4.10;;;19.30;70.80;;;;;;5077664;28;20048;-74
2021/09/19 11:03:33;;;;;;;9.20;3.90;;;19.20;71.40;;;;;;5078368;28;20054;-72
2021/09/19 11:06:00;;;;;;;7.40;4.03;;;19.30;70.90;;;;;;5060504;28;20130;-75
2021/09/19 11:08:34;;;;;;;6.88;4.07;;;19.30;70.70;;;;;;5077492;28;20047;-73
2021/09/19 11:11:01;;;;;;;8.02;3.10;;;19.30;72.20;;;;;;5095917;28;20044;-73
2021/09/19 11:13:30;;;;;;;6.57;3.25;;;19.30;71.00;;;;;;5095619;28;20044;-74
2021/09/19 11:16:02;;;;;;;5.97;2.83;;;19.40;70.10;;;;;;5095416;28;20079;-73
2021/09/19 11:18:51;;;;;;;6.65;3.20;;;19.40;68.90;;;;;;5095719;28;20048;-73
2021/09/19 11:21:20;;;;;;;5.07;3.22;;;19.40;69.00;;;;;;5094597;28;20044;-73
2021/09/19 11:24:00;;;;;;;5.82;3.38;;;19.40;70.60;;;;;;5095576;28;20042;-73
2021/09/19 11:26:48;;;;;;;5.93;3.38;;;19.40;70.10;;;;;;5095678;28;20035;-74
2021/09/19 11:29:17;;;;;;;6.72;3.38;;;19.40;70.00;;;;;;5073801;28;20108;-73
2021/09/19 11:31:45;;;;;;;5.85;3.10;;;19.30;69.70;;;;;;5073633;28;20541;-74
2021/09/19 11:34:20;;;;;;;5.30;3.33;;;19.30;69.50;;;;;;5074720;28;20500;-72
2021/09/19 11:36:50;;;;;;;6.38;3.72;;;19.30;69.20;;;;;;5094030;28;20040;-72
2021/09/19 11:39:17;;;;;;;7.20;3.05;;;19.30;69.40;;;;;;5077145;28;20107;-73
2021/09/19 11:41:43;;;;;;;5.78;3.13;;;19.30;70.20;;;;;;5077587;28;20071;-74
2021/09/19 11:44:13;;;;;;;7.72;3.15;;;19.30;70.50;;;;;;5095231;28;20367;-74
2021/09/19 11:46:49;;;;;;;3.65;2.67;;;19.40;70.90;;;;;;5095127;28;20052;-73
2021/09/19 11:49:16;;;;;;;4.97;3.22;;;19.40;70.70;;;;;;5076854;28;20051;-75
2021/09/19 11:51:44;;;;;;;6.85;2.78;;;19.40;70.40;;;;;;5095181;28;20051;-73
2021/09/19 11:54:15;;;;;;;4.20;3.28;;;19.40;70.80;;;;;;5060417;28;20044;-73
2021/09/19 11:56:43;;;;;;;9.68;3.10;;;19.40;70.60;;;;;;5094793;28;20131;-73
2021/09/19 11:59:15;;;;;;;7.93;3.40;;;19.40;70.40;;;;;;5094874;28;20355;-73
2021/09/19 12:01:41;;;;;;;8.93;3.25;;;19.40;70.80;;;;;;5077145;28;20055;-75
2021/09/19 12:04:09;;;;;;;6.47;3.22;;;19.40;70.90;;;;;;5095273;28;20431;-74
2021/09/19 12:06:37;;;;;;;7.30;3.10;;;19.40;71.10;;;;;;5095391;28;20447;-73
2021/09/19 12:09:11;;;;;;;6.20;2.95;;;19.40;70.90;;;;;;5077636;28;20051;-74
2021/09/19 12:11:42;;;;;;;5.93;2.83;;;19.40;70.90;;;;;;5099130;28;20035;-75
2021/09/19 12:14:13;;;;;;;5.05;2.63;;;19.50;70.60;;;;;;5099469;28;20116;-74
2021/09/19 12:16:39;;;;;;;4.43;2.25;;;19.50;68.90;;;;;;5099508;28;20083;-73
2021/09/19 12:19:20;;;;;;;4.55;2.78;;;19.50;68.80;;;;;;5094900;28;20036;-76
2021/09/19 12:21:59;;;;;;;4.32;2.83;;;19.40;68.20;;;;;;5087395;28;20044;-74
2021/09/19 12:24:26;;;;;;;6.40;2.88;;;19.40;68.30;;;;;;5075221;28;20054;-72
2021/09/19 12:26:52;;;;;;;8.52;2.67;;;19.40;68.50;;;;;;5080908;28;20054;-74
2021/09/19 12:29:20;;;;;;;13.43;3.63;;;19.40;69.00;;;;;;5099729;28;20050;-74
2021/09/19 12:31:50;;;;;;;12.05;3.25;;;19.40;69.50;;;;;;5081293;28;20048;-74
2021/09/19 12:34:20;;;;;;;7.90;2.75;;;19.40;70.10;;;;;;5063563;28;20071;-74
2021/09/19 12:36:54;;;;;;;8.02;2.65;;;19.40;70.30;;;;;;5098797;28;20056;-72
2021/09/19 12:39:31;;;;;;;11.48;2.78;;;19.50;70.60;;;;;;5080880;28;20446;-71
2021/09/19 12:42:04;;;;;;;11.23;2.75;;;19.50;70.70;;;;;;5098752;28;20044;-71
2021/09/19 12:44:33;;;;;;;8.20;2.90;;;19.50;70.80;;;;;;5080693;28;20044;-70
2021/09/19 12:47:02;;;;;;;4.85;2.33;;;19.50;70.90;;;;;;5098318;28;20060;-71
2021/09/19 12:49:33;;;;;;;8.27;2.13;;;19.50;71.00;;;;;;5098777;28;20040;-72